Time;durP1;ratioP1;P1;durP2;ratioP2;P2;SDS_P1;SDS_P2;PMS_P1;PMS_P2;Temp;Humidity;BMP_temperature;BMP_pressure;BME280_temperature;BME280_humidity;BME280_pressure;Samples;Min_cycle;Max_cycle;Signal;HPM_P1;HPM_P2
2023/05/04 00:00:15;;;;;;;0.57;0.57;;;4.90;99.90;;;;;;5050705;28;20055;-83
2023/05/04 00:02:41;;;;;;;0.80;0.55;;;5.00;99.90;;;;;;5057225;28;20079;-83
2023/05/04 00:05:07;;;;;;;0.00;0.00;;;5.00;99.90;;;;;;5060301;28;20036;-83
2023/05/04 00:07:33;;;;;;;0.00;0.00;;;5.00;99.90;;;;;;5054583;28;20044;-83
2023/05/04 00:10:00;;;;;;;0.35;0.35;;;4.90;99.90;;;;;;5052552;28;20456;-83
2023/05/04 00:12:26;;;;;;;0.47;0.38;;;5.00;99.90;;;;;;5050256;28;20045;-84
2023/05/04 00:14:51;;;;;;;0.10;0.10;;;5.00;93.00;;;;;;5033840;28;20069;-83
2023/05/04 00:17:17;;;;;;;0.30;0.30;;;5.00;97.30;;;;;;5034066;28;20408;-84
2023/05/04 00:19:44;;;;;;;0.05;0.05;;;5.00;62.50;;;;;;5031770;28;20046;-83
2023/05/04 00:22:10;;;;;;;0.00;0.00;;;5.00;72.60;;;;;;5039414;28;20066;-83
2023/05/04 00:24:36;;;;;;;0.00;0.00;;;4.90;96.00;;;;;;5051609;28;20041;-83
2023/05/04 00:27:02;;;;;;;0.25;0.25;;;4.90;92.40;;;;;;5052343;28;20045;-83
2023/05/04 00:29:29;;;;;;;0.75;0.40;;;5.00;67.80;;;;;;5051515;28;20607;-83
2023/05/04 00:31:54;;;;;;;0.08;0.08;;;5.00;88.10;;;;;;5057236;28;20064;-83
2023/05/04 00:34:20;;;;;;;3.97;2.60;;;4.90;53.60;;;;;;5060201;28;20068;-84
2023/05/04 00:36:46;;;;;;;0.22;0.22;;;6.20;1.00;;;;;;5056178;28;20104;-84
2023/05/04 00:39:12;;;;;;;0.30;0.30;;;5.00;2.70;;;;;;5055640;28;20049;-83
2023/05/04 00:41:37;;;;;;;0.60;0.60;;;4.90;22.60;;;;;;5054309;28;20048;-83
2023/05/04 00:44:05;;;;;;;0.55;0.47;;;4.90;28.20;;;;;;5066021;28;20056;-83
2023/05/04 00:46:31;;;;;;;0.08;0.08;;;4.80;44.80;;;;;;5067313;28;20267;-83
2023/05/04 00:48:58;;;;;;;0.20;0.20;;;4.80;99.90;;;;;;5064656;28;20041;-83
2023/05/04 00:51:25;;;;;;;1.55;1.23;;;4.70;99.90;;;;;;5067844;28;20062;-83
2023/05/04 00:53:52;;;;;;;11.00;1.67;;;4.70;99.90;;;;;;5054362;28;20053;-84
2023/05/04 00:56:21;;;;;;;0.90;0.68;;;4.70;99.90;;;;;;5038903;28;20617;-83
2023/05/04 00:58:47;;;;;;;0.30;0.30;;;4.70;99.90;;;;;;5035866;28;20109;-83
2023/05/04 01:01:13;;;;;;;0.20;0.20;;;4.70;99.90;;;;;;5035593;28;20073;-83
2023/05/04 01:03:38;;;;;;;0.20;0.20;;;5.10;99.90;;;;;;5054951;28;20474;-83
2023/05/04 01:06:52;;;;;;;0.10;0.10;;;4.60;99.90;;;;;;5054870;28;20443;-84
2023/05/04 01:09:34;;;;;;;0.00;0.00;;;4.50;99.90;;;;;;5045788;28;20064;-84
2023/05/04 01:12:19;;;;;;;0.00;0.00;;;4.40;99.90;;;;;;5047698;28;20120;-82
2023/05/04 01:14:47;;;;;;;0.00;0.00;;;4.40;99.90;;;;;;5054483;28;20045;-82
2023/05/04 01:17:13;;;;;;;0.00;0.00;;;4.40;99.90;;;;;;5054855;28;20052;-83
2023/05/04 01:19:38;;;;;;;0.00;0.00;;;4.30;99.90;;;;;;5053901;28;20037;-83
2023/05/04 01:22:04;;;;;;;0.25;0.25;;;4.30;99.90;;;;;;5055631;28;20084;-84
2023/05/04 01:24:30;;;;;;;0.20;0.20;;;4.60;99.90;;;;;;5054566;28;20068;-83
2023/05/04 01:27:04;;;;;;;0.00;0.00;;;4.30;99.90;;;;;;5055293;28;20041;-83
2023/05/04 01:30:15;;;;;;;0.10;0.10;;;4.30;99.90;;;;;;5042502;28;20056;-83
2023/05/04 01:32:42;;;;;;;0.00;0.00;;;4.20;99.90;;;;;;5028257;28;20061;-83
2023/05/04 01:35:11;;;;;;;0.43;0.08;;;4.30;99.90;;;;;;5041679;28;20109;-83
2023/05/04 01:37:36;;;;;;;0.30;0.25;;;4.30;99.90;;;;;;5031391;28;20068;-84
2023/05/04 01:40:04;;;;;;;0.55;0.45;;;4.30;99.90;;;;;;5033833;28;20048;-84
2023/05/04 01:42:29;;;;;;;1.02;0.93;;;4.20;99.90;;;;;;5051455;28;20048;-83
2023/05/04 01:44:55;;;;;;;0.22;0.22;;;4.20;99.90;;;;;;5031886;28;20044;-83
2023/05/04 01:47:21;;;;;;;0.10;0.10;;;4.30;99.90;;;;;;5031548;28;20053;-83
2023/05/04 01:49:46;;;;;;;0.98;0.88;;;4.30;99.90;;;;;;5035141;28;20046;-83
2023/05/04 01:52:12;;;;;;;0.00;0.00;;;4.30;99.90;;;;;;5033974;28;20136;-83
2023/05/04 01:54:38;;;;;;;0.20;0.20;;;4.20;99.90;;;;;;5033550;28;20065;-83
2023/05/04 01:57:03;;;;;;;0.38;0.38;;;4.20;99.90;;;;;;5033601;28;20054;-83
2023/05/04 01:59:29;;;;;;;0.32;0.32;;;4.20;99.90;;;;;;5035400;28;20048;-83
2023/05/04 02:01:55;;;;;;;0.20;0.20;;;4.30;99.90;;;;;;5033161;28;20111;-83
2023/05/04 02:04:20;;;;;;;0.10;0.10;;;4.40;99.90;;;;;;5032720;28;20041;-83
2023/05/04 02:06:47;;;;;;;0.10;0.10;;;4.30;99.90;;;;;;5033616;28;20415;-84
2023/05/04 02:09:13;;;;;;;0.82;0.82;;;4.30;99.90;;;;;;5046533;28;20049;-84
2023/05/04 02:11:38;;;;;;;0.20;0.10;;;4.30;99.90;;;;;;5044623;28;20066;-83
2023/05/04 02:14:04;;;;;;;0.10;0.08;;;4.30;99.90;;;;;;5053364;28;20131;-83
2023/05/04 02:16:30;;;;;;;6.65;1.98;;;4.20;99.90;;;;;;5052212;28;20045;-83
2023/05/04 02:18:56;;;;;;;1.75;0.93;;;4.20;99.90;;;;;;5053050;28;20465;-84
2023/05/04 02:21:22;;;;;;;0.47;0.47;;;4.30;99.90;;;;;;5053220;28;20127;-83
2023/05/04 02:23:47;;;;;;;0.00;0.00;;;4.30;99.90;;;;;;5053410;28;20094;-83
2023/05/04 02:26:13;;;;;;;0.43;0.40;;;4.30;99.90;;;;;;5053320;28;20037;-84
2023/05/04 02:28:39;;;;;;;0.55;0.40;;;4.30;99.90;;;;;;5037103;28;20084;-83
2023/05/04 02:31:05;;;;;;;1.25;0.77;;;4.30;99.90;;;;;;5034167;28;20038;-83
2023/05/04 02:33:30;;;;;;;0.38;0.38;;;4.20;99.90;;;;;;5039314;28;20071;-83
2023/05/04 02:35:56;;;;;;;0.68;0.68;;;4.30;99.90;;;;;;5053841;28;20060;-83
2023/05/04 02:38:22;;;;;;;0.30;0.30;;;4.30;99.90;;;;;;5051743;28;20063;-84
2023/05/04 02:40:47;;;;;;;0.50;0.47;;;4.40;99.90;;;;;;5034088;28;20049;-83
2023/05/04 02:43:13;;;;;;;0.77;0.77;;;4.40;99.90;;;;;;5035014;28;20053;-84
2023/05/04 02:45:38;;;;;;;6.13;1.20;;;4.50;99.90;;;;;;5032649;28;20049;-84
2023/05/04 02:48:04;;;;;;;0.50;0.50;;;4.50;99.90;;;;;;5032218;28;20506;-82
2023/05/04 02:50:30;;;;;;;0.30;0.30;;;4.50;99.90;;;;;;5032539;28;20041;-82
2023/05/04 02:52:56;;;;;;;1.48;0.95;;;4.50;99.90;;;;;;5033389;28;20052;-83
2023/05/04 02:55:21;;;;;;;0.98;0.88;;;4.60;99.90;;;;;;5053186;28;20053;-83
2023/05/04 02:57:47;;;;;;;1.90;1.00;;;4.70;99.90;;;;;;5054567;28;20323;-82
2023/05/04 03:00:13;;;;;;;0.08;0.08;;;4.70;99.90;;;;;;5053836;28;20049;-83
2023/05/04 03:02:39;;;;;;;0.20;0.20;;;4.70;99.90;;;;;;5038196;28;20128;-83
2023/05/04 03:05:05;;;;;;;0.10;0.10;;;4.70;99.90;;;;;;5032654;28;20132;-83
2023/05/04 03:07:31;;;;;;;1.52;0.63;;;4.70;99.90;;;;;;5032841;28;20392;-83
2023/05/04 03:09:57;;;;;;;1.48;1.38;;;4.70;99.90;;;;;;5032476;28;20037;-82
2023/05/04 03:12:23;;;;;;;1.55;1.00;;;4.70;99.90;;;;;;5031974;28;20051;-83
2023/05/04 03:14:49;;;;;;;0.03;0.03;;;4.70;99.90;;;;;;5034158;28;20072;-84
2023/05/04 03:17:14;;;;;;;0.00;0.00;;;4.70;99.90;;;;;;5033479;28;20056;-85
2023/05/04 03:19:40;;;;;;;0.20;0.20;;;3.80;99.90;;;;;;5031411;28;20509;-84
2023/05/04 03:22:06;;;;;;;0.20;0.20;;;4.70;99.90;;;;;;5039168;28;20072;-82
2023/05/04 03:24:31;;;;;;;0.00;0.00;;;4.70;99.90;;;;;;5051194;28;20045;-82
2023/05/04 03:26:57;;;;;;;0.00;0.00;;;4.80;99.90;;;;;;5051825;28;20138;-82
2023/05/04 03:29:23;;;;;;;0.55;0.55;;;4.70;99.90;;;;;;5052047;28;20051;-83
2023/05/04 03:31:48;;;;;;;0.30;0.30;;;4.70;99.90;;;;;;5052007;28;20040;-82
2023/05/04 03:34:14;;;;;;;0.40;0.40;;;4.70;99.90;;;;;;5045177;28;20076;-82
2023/05/04 03:36:40;;;;;;;0.00;0.00;;;4.70;99.90;;;;;;5033124;28;20496;-81
2023/05/04 03:39:06;;;;;;;0.25;0.25;;;4.70;99.90;;;;;;5032840;28;20041;-82
2023/05/04 03:41:32;;;;;;;1.25;0.68;;;4.70;99.90;;;;;;5032007;28;20060;-82
2023/05/04 03:43:57;;;;;;;0.15;0.15;;;4.70;99.90;;;;;;5037770;28;20045;-82
2023/05/04 03:46:23;;;;;;;0.80;0.80;;;4.70;99.90;;;;;;5053413;28;20391;-82
2023/05/04 03:48:48;;;;;;;0.63;0.63;;;4.70;99.90;;;;;;5054662;28;20041;-82
2023/05/04 03:51:14;;;;;;;0.30;0.30;;;4.70;99.90;;;;;;5053784;28;20305;-82
2023/05/04 03:53:40;;;;;;;0.75;0.75;;;4.70;99.90;;;;;;5051454;28;20037;-82
2023/05/04 03:56:06;;;;;;;0.65;0.55;;;4.70;99.90;;;;;;5052076;28;20562;-83
2023/05/04 03:58:31;;;;;;;0.40;0.35;;;4.70;99.90;;;;;;5053629;28;20045;-82
2023/05/04 04:00:57;;;;;;;0.22;0.22;;;4.80;99.90;;;;;;5053080;28;20091;-83
2023/05/04 04:03:22;;;;;;;0.20;0.20;;;4.80;99.90;;;;;;5052184;28;20052;-83
2023/05/04 04:05:48;;;;;;;0.52;0.47;;;4.80;99.90;;;;;;5052915;28;20041;-83
2023/05/04 04:08:14;;;;;;;1.65;0.95;;;4.80;99.90;;;;;;5052750;28;20041;-83
2023/05/04 04:10:40;;;;;;;0.50;0.50;;;4.80;99.90;;;;;;5053033;28;20052;-83
2023/05/04 04:13:05;;;;;;;0.45;0.45;;;4.90;99.90;;;;;;5052532;28;20076;-82
2023/05/04 04:15:31;;;;;;;0.30;0.30;;;4.90;99.90;;;;;;5036240;28;20049;-82
2023/05/04 04:17:57;;;;;;;0.82;0.80;;;5.70;99.90;;;;;;5054835;28;20124;-84
2023/05/04 04:20:22;;;;;;;0.57;0.57;;;5.00;99.90;;;;;;5053281;28;20457;-83
2023/05/04 04:22:48;;;;;;;0.30;0.30;;;5.00;99.90;;;;;;5045147;28;20037;-82
2023/05/04 04:25:14;;;;;;;0.35;0.28;;;5.10;99.90;;;;;;5046629;28;20577;-82
2023/05/04 04:27:40;;;;;;;0.55;0.55;;;5.10;99.90;;;;;;5044213;28;20041;-84
2023/05/04 04:30:09;;;;;;;0.32;0.32;;;5.10;99.90;;;;;;5039681;28;20060;-83
2023/05/04 04:32:36;;;;;;;1.17;0.75;;;5.10;99.90;;;;;;5047827;28;20400;-84
2023/05/04 04:35:03;;;;;;;0.60;0.60;;;5.10;99.90;;;;;;5043215;28;20061;-84
2023/05/04 04:37:28;;;;;;;0.45;0.45;;;5.10;99.90;;;;;;5043113;28;20049;-84
2023/05/04 04:39:54;;;;;;;0.75;0.40;;;5.10;99.90;;;;;;5046023;28;20100;-83
2023/05/04 04:42:20;;;;;;;0.22;0.22;;;5.10;99.90;;;;;;5044351;28;20487;-84
2023/05/04 04:44:46;;;;;;;1.63;1.17;;;5.20;99.90;;;;;;5037939;28;20080;-84
2023/05/04 04:47:12;;;;;;;0.47;0.47;;;5.20;99.90;;;;;;5038798;28;20685;-84
2023/05/04 04:49:37;;;;;;;0.40;0.40;;;5.20;99.90;;;;;;5041523;28;20041;-83
2023/05/04 04:52:03;;;;;;;0.63;0.63;;;5.20;99.90;;;;;;5039382;28;20129;-83
2023/05/04 04:54:30;;;;;;;0.10;0.10;;;5.20;99.90;;;;;;5040889;28;20049;-82
2023/05/04 04:56:56;;;;;;;1.02;0.93;;;5.30;99.90;;;;;;5055560;28;20041;-83
2023/05/04 04:59:23;;;;;;;0.15;0.15;;;5.30;99.90;;;;;;5054949;28;20051;-83
2023/05/04 05:01:49;;;;;;;0.73;0.45;;;5.40;99.90;;;;;;5053266;28;20052;-83
2023/05/04 05:04:14;;;;;;;0.03;0.03;;;5.40;99.90;;;;;;5034021;28;20039;-83
2023/05/04 05:06:40;;;;;;;0.32;0.25;;;5.50;99.90;;;;;;5032538;28;20053;-84
2023/05/04 05:09:06;;;;;;;0.47;0.43;;;5.50;99.90;;;;;;5033358;28;20049;-84
2023/05/04 05:11:32;;;;;;;0.05;0.05;;;5.60;99.90;;;;;;5033015;28;20137;-84
2023/05/04 05:13:58;;;;;;;0.35;0.35;;;5.70;60.70;;;;;;5034606;28;20706;-83
2023/05/04 05:16:24;;;;;;;0.85;0.85;;;5.70;47.70;;;;;;5053468;28;20056;-83
2023/05/04 05:18:50;;;;;;;0.20;0.20;;;5.80;27.30;;;;;;5051571;28;20061;-82
2023/05/04 05:21:16;;;;;;;0.98;0.52;;;5.90;1.00;;;;;;5052818;28;20045;-83
2023/05/04 05:23:41;;;;;;;0.32;0.32;;;6.00;1.00;;;;;;5056184;28;20475;-82
2023/05/04 05:26:07;;;;;;;0.60;0.40;;;6.00;1.00;;;;;;5055995;28;20072;-82
2023/05/04 05:28:33;;;;;;;0.00;0.00;;;6.10;1.00;;;;;;5055737;28;20053;-84
2023/05/04 05:30:58;;;;;;;1.70;1.08;;;6.80;99.90;;;;;;5049156;28;20581;-84
2023/05/04 05:33:24;;;;;;;2.45;0.80;;;6.20;99.90;;;;;;5036595;28;20048;-84
2023/05/04 05:35:50;;;;;;;0.38;0.38;;;6.30;99.90;;;;;;5033433;28;20056;-84
2023/05/04 05:38:16;;;;;;;0.35;0.30;;;6.30;36.60;;;;;;5034079;28;20076;-84
2023/05/04 05:40:42;;;;;;;1.23;1.13;;;6.40;1.00;;;;;;5033610;28;20111;-84
2023/05/04 05:43:07;;;;;;;0.05;0.05;;;6.40;99.90;;;;;;5034547;28;20045;-84
2023/05/04 05:45:33;;;;;;;5.28;1.17;;;6.50;1.00;;;;;;5032227;28;20053;-84
2023/05/04 05:47:58;;;;;;;0.13;0.13;;;6.70;36.80;;;;;;5033281;28;20077;-83
2023/05/04 05:50:24;;;;;;;0.57;0.52;;;6.70;99.90;;;;;;5032106;28;20099;-83
2023/05/04 05:52:50;;;;;;;0.45;0.40;;;6.90;99.90;;;;;;5032885;28;20049;-83
2023/05/04 05:55:16;;;;;;;1.50;1.17;;;6.90;99.90;;;;;;5032693;28;20057;-84
2023/05/04 05:57:41;;;;;;;0.10;0.10;;;6.90;99.90;;;;;;5040738;28;20131;-85
2023/05/04 06:00:08;;;;;;;0.05;0.05;;;7.20;99.90;;;;;;5044159;28;20047;-85
2023/05/04 06:02:33;;;;;;;0.30;0.30;;;7.20;99.90;;;;;;5042524;28;20037;-84
2023/05/04 06:04:59;;;;;;;0.43;0.43;;;7.30;1.00;;;;;;5048935;28;20128;-84
2023/05/04 06:07:25;;;;;;;0.75;0.47;;;7.40;99.90;;;;;;5053431;28;20045;-84
2023/05/04 06:09:51;;;;;;;0.95;0.47;;;7.60;99.90;;;;;;5053753;28;20120;-85
2023/05/04 06:12:16;;;;;;;0.28;0.28;;;7.80;99.90;;;;;;5053615;28;20459;-84
2023/05/04 06:14:42;;;;;;;0.00;0.00;;;8.00;1.00;;;;;;5054582;28;20037;-85
2023/05/04 06:17:08;;;;;;;5.35;1.05;;;8.40;99.90;;;;;;5046010;28;20119;-83
2023/05/04 06:19:36;;;;;;;0.32;0.32;;;8.90;99.90;;;;;;5052459;28;20048;-83
2023/05/04 06:22:02;;;;;;;0.43;0.40;;;9.30;99.90;;;;;;5054046;28;20124;-84
2023/05/04 06:24:28;;;;;;;0.10;0.10;;;9.50;90.40;;;;;;5053589;28;20049;-84
2023/05/04 06:26:55;;;;;;;0.15;0.08;;;9.60;1.00;;;;;;5052226;28;20102;-84
2023/05/04 06:29:20;;;;;;;0.22;0.22;;;9.50;1.00;;;;;;5053410;28;20053;-85
2023/05/04 06:31:46;;;;;;;0.40;0.32;;;9.40;1.00;;;;;;5048522;28;20115;-84
2023/05/04 06:34:12;;;;;;;0.40;0.35;;;9.50;1.00;;;;;;5046780;28;20091;-84
2023/05/04 06:36:38;;;;;;;0.55;0.50;;;9.60;99.90;;;;;;5047547;28;20052;-84
2023/05/04 06:39:03;;;;;;;1.17;0.52;;;9.70;99.90;;;;;;5046913;28;20071;-84
2023/05/04 06:41:29;;;;;;;3.30;1.40;;;10.10;99.90;;;;;;5046506;28;20087;-84
2023/05/04 06:43:55;;;;;;;0.30;0.22;;;10.30;99.90;;;;;;5046390;28;20041;-85
2023/05/04 06:46:21;;;;;;;7.05;0.98;;;10.00;99.90;;;;;;5049299;28;20053;-84
2023/05/04 06:48:47;;;;;;;3.95;0.88;;;10.20;99.90;;;;;;5046752;28;20064;-85
2023/05/04 06:51:12;;;;;;;0.10;0.10;;;10.30;99.90;;;;;;5046529;28;20063;-85
2023/05/04 06:53:38;;;;;;;0.00;0.00;;;10.40;99.90;;;;;;5043275;28;20044;-85
2023/05/04 06:56:04;;;;;;;0.35;0.35;;;10.50;99.90;;;;;;5043304;28;20053;-85
2023/05/04 06:58:29;;;;;;;0.52;0.35;;;10.80;99.90;;;;;;5043841;28;20052;-85
2023/05/04 07:00:55;;;;;;;2.78;1.67;;;11.20;99.90;;;;;;5043222;28;20044;-85
2023/05/04 07:03:21;;;;;;;0.65;0.65;;;11.40;99.90;;;;;;5044285;28;20102;-85
2023/05/04 07:05:47;;;;;;;1.08;0.52;;;11.60;99.90;;;;;;5044218;28;20399;-85
2023/05/04 07:08:13;;;;;;;1.25;0.93;;;11.80;99.90;;;;;;5037114;28;20048;-85
2023/05/04 07:10:39;;;;;;;0.35;0.30;;;12.70;99.90;;;;;;5044397;28;20929;-85
2023/05/04 07:13:04;;;;;;;5.43;1.15;;;11.70;99.90;;;;;;5042852;28;20086;-85
2023/05/04 07:15:32;;;;;;;0.55;0.43;;;12.40;99.90;;;;;;5046656;28;20131;-85
2023/05/04 07:17:58;;;;;;;0.15;0.10;;;12.60;99.90;;;;;;5043668;28;20041;-85
2023/05/04 07:20:24;;;;;;;0.52;0.52;;;12.20;99.90;;;;;;5043659;28;20606;-85
2023/05/04 07:22:55;;;;;;;1.55;1.17;;;12.60;99.90;;;;;;5043641;28;20060;-86
2023/05/04 07:25:21;;;;;;;0.05;0.05;;;13.80;99.90;;;;;;5043124;28;20517;-86
2023/05/04 07:27:47;;;;;;;14.07;1.95;;;12.90;99.90;;;;;;5043239;28;20411;-86
2023/05/04 07:30:13;;;;;;;2.03;0.40;;;12.80;99.50;;;;;;5042164;28;20098;-86
2023/05/04 07:32:38;;;;;;;0.68;0.57;;;12.90;90.60;;;;;;5044462;28;20490;-86
2023/05/04 07:35:05;;;;;;;0.93;0.70;;;12.30;81.10;;;;;;5043162;28;20052;-86
2023/05/04 07:37:31;;;;;;;0.00;0.00;;;12.40;90.50;;;;;;5041876;28;20080;-86
2023/05/04 07:39:59;;;;;;;1.30;0.38;;;12.50;77.40;;;;;;5043385;28;20394;-86
2023/05/04 07:42:26;;;;;;;0.43;0.43;;;12.80;90.70;;;;;;5042286;28;20071;-85
2023/05/04 07:44:52;;;;;;;0.43;0.40;;;13.30;99.40;;;;;;5041215;28;20067;-86
2023/05/04 07:47:18;;;;;;;2.67;1.13;;;13.80;93.10;;;;;;5024738;28;20049;-86
2023/05/04 07:49:44;;;;;;;0.25;0.25;;;13.90;80.90;;;;;;5042653;28;20052;-86
2023/05/04 07:52:10;;;;;;;0.63;0.40;;;13.40;60.50;;;;;;5042771;28;20136;-86
2023/05/04 07:54:35;;;;;;;0.63;0.60;;;13.30;60.30;;;;;;5042582;28;20139;-85
2023/05/04 07:57:02;;;;;;;2.28;0.30;;;13.10;55.70;;;;;;5042534;28;20048;-86
2023/05/04 07:59:29;;;;;;;0.25;0.25;;;13.20;61.60;;;;;;5042130;28;20215;-86
2023/05/04 08:01:55;;;;;;;0.30;0.13;;;14.40;90.60;;;;;;5042806;28;20053;-86
2023/05/04 08:04:21;;;;;;;2.83;0.85;;;13.80;82.30;;;;;;5043307;28;20049;-86
2023/05/04 08:06:48;;;;;;;1.30;0.57;;;14.00;84.00;;;;;;5041909;28;20060;-86
2023/05/04 08:09:14;;;;;;;1.17;0.45;;;14.30;87.50;;;;;;5041823;28;20134;-86
2023/05/04 08:11:40;;;;;;;0.43;0.43;;;14.30;88.90;;;;;;5048683;28;20048;-86
2023/05/04 08:14:06;;;;;;;1.02;0.93;;;14.60;90.60;;;;;;5051622;28;20100;-86
2023/05/04 08:16:31;;;;;;;0.75;0.65;;;14.60;65.20;;;;;;5050965;28;20202;-86
2023/05/04 08:18:58;;;;;;;0.43;0.32;;;14.80;67.30;;;;;;5051886;28;20045;-85
2023/05/04 08:21:24;;;;;;;0.38;0.30;;;15.00;80.60;;;;;;5052244;28;20051;-86
2023/05/04 08:23:50;;;;;;;2.40;1.17;;;15.60;86.20;;;;;;5047126;28;20441;-86
2023/05/04 08:26:15;;;;;;;0.73;0.73;;;15.90;88.30;;;;;;5045688;28;20047;-85
2023/05/04 08:28:41;;;;;;;8.13;1.50;;;16.50;94.70;;;;;;5044186;28;20088;-86
2023/05/04 08:31:08;;;;;;;0.65;0.50;;;16.30;69.40;;;;;;5049736;28;20045;-85
2023/05/04 08:33:34;;;;;;;2.30;0.77;;;16.80;83.40;;;;;;5043248;28;20045;-86
2023/05/04 08:35:59;;;;;;;1.48;0.80;;;16.80;61.60;;;;;;5041747;28;20060;-86
2023/05/04 08:38:25;;;;;;;1.38;0.93;;;17.30;57.10;;;;;;5043712;28;20060;-86
2023/05/04 08:40:51;;;;;;;0.40;0.35;;;17.00;47.80;;;;;;5043789;28;20065;-86
2023/05/04 08:43:17;;;;;;;2.67;1.13;;;16.40;39.80;;;;;;5043314;28;20045;-86
2023/05/04 08:45:44;;;;;;;0.80;0.80;;;16.30;32.40;;;;;;5043111;28;20048;-86
2023/05/04 08:48:09;;;;;;;0.52;0.43;;;17.10;39.70;;;;;;5043160;28;20049;-86
2023/05/04 08:50:36;;;;;;;3.20;1.08;;;16.70;49.00;;;;;;5063608;28;20041;-86
2023/05/04 08:53:05;;;;;;;0.47;0.30;;;17.20;56.30;;;;;;5057782;28;20080;-86
2023/05/04 08:55:34;;;;;;;0.40;0.40;;;17.60;59.40;;;;;;5043598;28;20056;-86
2023/05/04 08:58:03;;;;;;;0.10;0.10;;;17.80;66.80;;;;;;5045489;28;20088;-86
2023/05/04 09:00:29;;;;;;;0.57;0.45;;;17.80;46.40;;;;;;5046936;28;20049;-86
2023/05/04 09:02:58;;;;;;;0.40;0.30;;;18.50;45.10;;;;;;5047310;28;20056;-86
2023/05/04 09:05:25;;;;;;;0.52;0.52;;;18.80;46.90;;;;;;5048331;28;20134;-87
2023/05/04 09:07:51;;;;;;;0.43;0.43;;;17.50;25.80;;;;;;5047195;28;20127;-86
2023/05/04 09:10:18;;;;;;;2.45;0.60;;;18.00;32.80;;;;;;5047776;28;20075;-86
2023/05/04 09:12:44;;;;;;;0.10;0.10;;;18.10;38.30;;;;;;5052283;28;20048;-86
2023/05/04 09:15:17;;;;;;;2.28;0.47;;;19.80;65.70;;;;;;5065323;28;20063;-86
2023/05/04 09:18:03;;;;;;;1.27;0.75;;;19.30;71.20;;;;;;5062679;28;20084;-86
2023/05/04 09:20:29;;;;;;;0.60;0.35;;;19.30;58.70;;;;;;5064681;28;20556;-86
2023/05/04 09:23:06;;;;;;;0.25;0.25;;;19.30;53.80;;;;;;5067414;28;20048;-86
2023/05/04 09:25:54;;;;;;;0.28;0.28;;;18.60;17.30;;;;;;5066284;28;20044;-86
2023/05/04 09:28:32;;;;;;;0.50;0.40;;;18.60;28.00;;;;;;5060641;28;20832;-86
2023/05/04 09:31:01;;;;;;;0.45;0.40;;;19.10;29.40;;;;;;5055049;28;20087;-86
2023/05/04 09:33:27;;;;;;;0.00;0.00;;;19.00;31.90;;;;;;5052771;28;21000;-86
2023/05/04 09:35:52;;;;;;;0.20;0.20;;;19.40;43.10;;;;;;5052919;28;20127;-86
2023/05/04 09:38:31;;;;;;;1.08;0.70;;;19.50;40.90;;;;;;5049267;28;20132;-86
2023/05/04 09:40:56;;;;;;;1.08;0.73;;;19.10;20.50;;;;;;5045871;28;20195;-86
2023/05/04 09:43:25;;;;;;;0.17;0.17;;;19.20;20.20;;;;;;5046292;28;20483;-86
2023/05/04 09:45:52;;;;;;;0.60;0.60;;;19.20;11.10;;;;;;5046052;28;20037;-86
2023/05/04 09:48:25;;;;;;;0.65;0.32;;;18.90;19.30;;;;;;5045745;28;20049;-85
2023/05/04 09:50:56;;;;;;;0.40;0.40;;;19.90;32.00;;;;;;5046028;28;20056;-86
2023/05/04 09:53:26;;;;;;;1.63;1.20;;;19.80;45.90;;;;;;5045627;28;20045;-85
2023/05/04 09:56:07;;;;;;;0.22;0.22;;;19.20;11.90;;;;;;5046011;28;20132;-86
2023/05/04 09:58:33;;;;;;;0.55;0.50;;;18.60;1.00;;;;;;5045321;28;20128;-86
2023/05/04 10:01:02;;;;;;;1.25;0.80;;;18.40;1.00;;;;;;5045290;28;20127;-86
2023/05/04 10:03:28;;;;;;;0.90;0.68;;;18.70;8.30;;;;;;5045128;28;20450;-86
2023/05/04 10:05:56;;;;;;;1.45;0.82;;;18.80;14.50;;;;;;5045058;28;20073;-86
2023/05/04 10:08:22;;;;;;;0.52;0.43;;;18.50;1.00;;;;;;5044110;28;20533;-85
2023/05/04 10:10:48;;;;;;;0.80;0.55;;;19.00;19.30;;;;;;5044929;28;20565;-86
2023/05/04 10:13:16;;;;;;;1.23;0.75;;;18.90;5.50;;;;;;5044257;28;20122;-85
2023/05/04 10:15:50;;;;;;;0.63;0.60;;;18.50;1.00;;;;;;5045319;28;20128;-86
2023/05/04 10:18:35;;;;;;;0.30;0.20;;;18.50;1.00;;;;;;5043886;28;20807;-86
2023/05/04 10:21:15;;;;;;;0.40;0.32;;;19.30;20.80;;;;;;5045122;28;20060;-86
2023/05/04 10:24:21;;;;;;;2.58;0.90;;;19.20;16.90;;;;;;5045466;28;20048;-85
2023/05/04 10:26:59;;;;;;;1.88;0.75;;;18.70;1.00;;;;;;5044784;28;20052;-85
2023/05/04 10:29:27;;;;;;;1.17;0.68;;;18.30;1.00;;;;;;5045055;28;20048;-85
2023/05/04 10:31:53;;;;;;;0.10;0.10;;;18.60;1.00;;;;;;5044883;28;20045;-85
2023/05/04 10:34:24;;;;;;;7.07;0.85;;;18.30;1.00;;;;;;5044861;28;20040;-85
2023/05/04 10:36:50;;;;;;;0.35;0.35;;;18.20;1.00;;;;;;5045187;28;20118;-85
2023/05/04 10:39:20;;;;;;;1.75;0.52;;;17.90;1.00;;;;;;5044393;28;20406;-84
2023/05/04 10:42:15;;;;;;;0.95;0.60;;;18.50;1.00;;;;;;5044628;28;20060;-84
2023/05/04 10:44:52;;;;;;;0.38;0.22;;;18.70;1.00;;;;;;5035300;28;20052;-84
2023/05/04 10:47:29;;;;;;;0.10;0.10;;;18.70;1.00;;;;;;5044363;28;20418;-85
2023/05/04 10:50:09;;;;;;;0.82;0.45;;;18.40;1.00;;;;;;5045028;28;20044;-84
2023/05/04 10:52:55;;;;;;;1.65;0.75;;;18.10;1.00;;;;;;5044288;28;20574;-85
2023/05/04 10:55:22;;;;;;;6.95;0.98;;;18.80;1.00;;;;;;5044107;28;20415;-85
2023/05/04 10:57:50;;;;;;;0.50;0.50;;;19.40;1.00;;;;;;5043645;28;20044;-86
2023/05/04 11:00:17;;;;;;;0.22;0.20;;;19.50;4.70;;;;;;5044703;28;20049;-85
2023/05/04 11:02:43;;;;;;;0.22;0.22;;;19.40;1.00;;;;;;5044020;28;20480;-85
2023/05/04 11:05:14;;;;;;;1.73;0.65;;;19.30;1.00;;;;;;5044061;28;20071;-85
2023/05/04 11:07:40;;;;;;;1.02;0.80;;;19.60;1.30;;;;;;5043818;28;20045;-85
2023/05/04 11:10:08;;;;;;;0.38;0.38;;;19.60;1.00;;;;;;5046104;28;20058;-84
2023/05/04 11:12:36;;;;;;;0.60;0.40;;;19.70;1.00;;;;;;5046413;28;20045;-84
2023/05/04 11:15:08;;;;;;;0.40;0.40;;;19.70;8.80;;;;;;5046677;28;20076;-85
2023/05/04 11:17:43;;;;;;;0.50;0.50;;;19.90;3.60;;;;;;5045742;28;20421;-85
2023/05/04 11:20:09;;;;;;;0.38;0.30;;;19.50;1.00;;;;;;5043540;28;20056;-86
2023/05/04 11:22:36;;;;;;;0.52;0.35;;;19.00;1.00;;;;;;5043631;28;20045;-85
2023/05/04 11:25:02;;;;;;;2.63;0.77;;;19.20;1.00;;;;;;5044462;28;20442;-85
2023/05/04 11:27:29;;;;;;;0.43;0.43;;;19.40;1.00;;;;;;5044036;28;20056;-85
2023/05/04 11:29:58;;;;;;;0.65;0.63;;;19.80;1.30;;;;;;5043517;28;20047;-85
2023/05/04 11:32:46;;;;;;;0.20;0.15;;;19.90;1.00;;;;;;5042963;28;20056;-85
2023/05/04 11:35:19;;;;;;;4.43;1.27;;;19.70;1.00;;;;;;5044327;28;20423;-84
2023/05/04 11:37:46;;;;;;;0.75;0.32;;;19.80;1.00;;;;;;5044719;28;20051;-85
2023/05/04 11:40:17;;;;;;;0.30;0.28;;;20.50;1.00;;;;;;5049111;28;20124;-85
2023/05/04 11:42:43;;;;;;;0.75;0.52;;;21.30;11.90;;;;;;5043981;28;20041;-85
2023/05/04 11:45:11;;;;;;;0.47;0.47;;;21.00;1.00;;;;;;5056578;28;20048;-84
2023/05/04 11:47:37;;;;;;;0.30;0.22;;;21.30;8.20;;;;;;5064887;28;20771;-84
2023/05/04 11:50:05;;;;;;;0.30;0.20;;;21.10;3.60;;;;;;5064690;28;20048;-83
2023/05/04 11:52:32;;;;;;;0.43;0.40;;;20.90;1.00;;;;;;5065175;28;20080;-84
2023/05/04 11:54:57;;;;;;;0.57;0.52;;;21.00;4.80;;;;;;5064100;28;20127;-84
2023/05/04 11:57:24;;;;;;;1.55;0.65;;;21.10;1.00;;;;;;5064520;28;20574;-84
2023/05/04 11:59:50;;;;;;;0.88;0.68;;;21.80;7.20;;;;;;5023265;28;20049;-84
2023/05/04 12:02:17;;;;;;;0.20;0.20;;;22.00;17.50;;;;;;5023609;28;20042;-84
2023/05/04 12:04:43;;;;;;;13.73;0.95;;;21.60;2.90;;;;;;5022781;28;20064;-84
2023/05/04 12:07:08;;;;;;;2.17;0.68;;;21.50;1.00;;;;;;5024630;28;20314;-84
2023/05/04 12:09:45;;;;;;;0.40;0.40;;;22.30;14.50;;;;;;5024737;28;20068;-84
2023/05/04 12:12:11;;;;;;;0.25;0.20;;;21.90;1.00;;;;;;5024790;28;20138;-84
2023/05/04 12:14:51;;;;;;;1.20;0.93;;;22.30;1.30;;;;;;5024232;28;20037;-84
2023/05/04 12:17:19;;;;;;;0.45;0.40;;;22.20;1.00;;;;;;5024380;28;20053;-84
2023/05/04 12:19:49;;;;;;;2.40;1.02;;;21.80;1.00;;;;;;5024806;28;20053;-84
2023/05/04 12:22:16;;;;;;;0.35;0.35;;;22.10;1.00;;;;;;5023626;28;20060;-84
2023/05/04 12:24:42;;;;;;;0.50;0.30;;;22.90;17.40;;;;;;5024699;28;20159;-84
2023/05/04 12:27:13;;;;;;;0.65;0.63;;;22.60;1.00;;;;;;5023615;28;20173;-84
2023/05/04 12:29:40;;;;;;;0.10;0.10;;;23.20;6.90;;;;;;5024020;28;20299;-84
2023/05/04 12:32:05;;;;;;;0.30;0.30;;;23.30;1.00;;;;;;5022279;28;20128;-84
2023/05/04 12:34:31;;;;;;;0.55;0.35;;;22.70;1.00;;;;;;5022362;28;20120;-84
2023/05/04 12:36:58;;;;;;;0.80;0.70;;;23.80;5.00;;;;;;5022484;28;20468;-84
2023/05/04 12:39:24;;;;;;;2.22;1.10;;;23.30;1.00;;;;;;5022782;28;20056;-84
2023/05/04 12:41:49;;;;;;;1.52;0.77;;;23.40;1.00;;;;;;5023285;28;20431;-84
2023/05/04 12:44:15;;;;;;;4.03;0.88;;;22.90;1.00;;;;;;5036133;28;20101;-84
2023/05/04 12:46:42;;;;;;;1.40;1.08;;;23.60;1.00;;;;;;5040936;28;20045;-84
2023/05/04 12:49:09;;;;;;;0.40;0.38;;;23.20;1.00;;;;;;5026652;28;20042;-84
2023/05/04 12:51:35;;;;;;;2.25;1.42;;;23.10;1.00;;;;;;5027012;28;20124;-84
2023/05/04 12:54:01;;;;;;;13.05;0.82;;;22.80;1.00;;;;;;5025485;28;20088;-83
2023/05/04 12:56:27;;;;;;;0.47;0.40;;;22.50;1.00;;;;;;5023326;28;20097;-84